sensor_id;sensor_type;location;lat;lon;timestamp;temperature;humidity
12481;DHT22;6305;48.398;11.762;2022-09-12T00:02:22;9.70;99.90
12481;DHT22;6305;48.398;11.762;2022-09-12T00:05:04;9.80;99.90
12481;DHT22;6305;48.398;11.762;2022-09-12T00:07:56;9.80;99.90
12481;DHT22;6305;48.398;11.762;2022-09-12T00:10:34;9.80;99.90
12481;DHT22;6305;48.398;11.762;2022-09-12T00:13:21;9.90;99.90
12481;DHT22;6305;48.398;11.762;2022-09-12T00:16:00;9.80;99.90
12481;DHT22;6305;48.398;11.762;2022-09-12T00:18:38;9.80;99.90
12481;DHT22;6305;48.398;11.762;2022-09-12T00:21:27;9.90;99.90
12481;DHT22;6305;48.398;11.762;2022-09-12T00:24:13;9.90;99.90
12481;DHT22;6305;48.398;11.762;2022-09-12T00:26:53;10.00;99.90
12481;DHT22;6305;48.398;11.762;2022-09-12T00:29:39;10.00;99.90
12481;DHT22;6305;48.398;11.762;2022-09-12T00:32:35;10.10;99.90
12481;DHT22;6305;48.398;11.762;2022-09-12T00:35:23;10.10;99.90
12481;DHT22;6305;48.398;11.762;2022-09-12T00:38:15;10.00;99.90
12481;DHT22;6305;48.398;11.762;2022-09-12T00:41:12;10.00;99.90
12481;DHT22;6305;48.398;11.762;2022-09-12T00:43:54;9.90;99.90
12481;DHT22;6305;48.398;11.762;2022-09-12T00:46:46;9.80;99.90
12481;DHT22;6305;48.398;11.762;2022-09-12T00:49:54;9.70;99.90
12481;DHT22;6305;48.398;11.762;2022-09-12T00:52:54;9.70;99.90
12481;DHT22;6305;48.398;11.762;2022-09-12T00:55:56;9.80;99.90
12481;DHT22;6305;48.398;11.762;2022-09-12T00:58:42;9.80;99.90
12481;DHT22;6305;48.398;11.762;2022-09-12T01:01:37;9.90;99.90
12481;DHT22;6305;48.398;11.762;2022-09-12T01:04:38;10.00;99.90
12481;DHT22;6305;48.398;11.762;2022-09-12T01:07:53;10.00;99.90
12481;DHT22;6305;48.398;11.762;2022-09-12T01:10:59;10.00;99.90
12481;DHT22;6305;48.398;11.762;2022-09-12T01:13:39;10.00;99.90
12481;DHT22;6305;48.398;11.762;2022-09-12T01:16:36;9.90;99.90
12481;DHT22;6305;48.398;11.762;2022-09-12T01:23:05;9.80;99.90
12481;DHT22;6305;48.398;11.762;2022-09-12T01:26:12;9.70;99.90
12481;DHT22;6305;48.398;11.762;2022-09-12T01:32:17;9.60;99.90
12481;DHT22;6305;48.398;11.762;2022-09-12T01:35:24;9.60;99.90
12481;DHT22;6305;48.398;11.762;2022-09-12T01:38:12;9.50;99.90
12481;DHT22;6305;48.398;11.762;2022-09-12T01:41:13;9.50;99.90
12481;DHT22;6305;48.398;11.762;2022-09-12T01:44:12;9.50;99.90
12481;DHT22;6305;48.398;11.762;2022-09-12T01:47:20;9.50;99.90
12481;DHT22;6305;48.398;11.762;2022-09-12T01:50:11;9.50;99.90
12481;DHT22;6305;48.398;11.762;2022-09-12T01:53:19;9.50;99.90
12481;DHT22;6305;48.398;11.762;2022-09-12T01:56:22;9.60;99.90
12481;DHT22;6305;48.398;11.762;2022-09-12T01:59:19;9.60;99.90
12481;DHT22;6305;48.398;11.762;2022-09-12T02:02:12;9.50;99.90
12481;DHT22;6305;48.398;11.762;2022-09-12T02:05:24;9.50;99.90
12481;DHT22;6305;48.398;11.762;2022-09-12T02:08:19;9.40;99.90
12481;DHT22;6305;48.398;11.762;2022-09-12T02:11:19;9.30;99.90
12481;DHT22;6305;48.398;11.762;2022-09-12T02:17:20;9.20;99.90
12481;DHT22;6305;48.398;11.762;2022-09-12T02:20:23;9.20;99.90
12481;DHT22;6305;48.398;11.762;2022-09-12T02:23:52;9.10;99.90
12481;DHT22;6305;48.398;11.762;2022-09-12T02:26:47;9.10;99.90
12481;DHT22;6305;48.398;11.762;2022-09-12T02:29:37;9.10;99.90
12481;DHT22;6305;48.398;11.762;2022-09-12T02:32:17;9.10;99.90
12481;DHT22;6305;48.398;11.762;2022-09-12T02:35:07;9.10;99.90
12481;DHT22;6305;48.398;11.762;2022-09-12T02:38:13;9.10;99.90
12481;DHT22;6305;48.398;11.762;2022-09-12T02:40:55;9.00;99.90
12481;DHT22;6305;48.398;11.762;2022-09-12T02:46:47;8.90;99.90
12481;DHT22;6305;48.398;11.762;2022-09-12T02:49:26;8.80;99.90
12481;DHT22;6305;48.398;11.762;2022-09-12T02:52:09;8.80;99.90
12481;DHT22;6305;48.398;11.762;2022-09-12T02:54:48;8.80;99.90
12481;DHT22;6305;48.398;11.762;2022-09-12T02:57:34;8.80;99.90
12481;DHT22;6305;48.398;11.762;2022-09-12T03:00:08;8.80;99.90
12481;DHT22;6305;48.398;11.762;2022-09-12T03:03:01;8.80;99.90
12481;DHT22;6305;48.398;11.762;2022-09-12T03:06:12;8.90;99.90
12481;DHT22;6305;48.398;11.762;2022-09-12T03:09:10;9.00;99.90
12481;DHT22;6305;48.398;11.762;2022-09-12T03:12:03;8.90;99.90
12481;DHT22;6305;48.398;11.762;2022-09-12T03:14:57;8.80;99.90
12481;DHT22;6305;48.398;11.762;2022-09-12T03:17:31;8.80;99.90
12481;DHT22;6305;48.398;11.762;2022-09-12T03:20:09;8.80;99.90
12481;DHT22;6305;48.398;11.762;2022-09-12T03:22:45;8.80;99.90
12481;DHT22;6305;48.398;11.762;2022-09-12T03:25:19;8.70;99.90
12481;DHT22;6305;48.398;11.762;2022-09-12T03:27:52;8.70;99.90
12481;DHT22;6305;48.398;11.762;2022-09-12T03:30:19;8.70;99.90
12481;DHT22;6305;48.398;11.762;2022-09-12T03:32:48;8.70;99.90
12481;DHT22;6305;48.398;11.762;2022-09-12T03:35:17;8.70;99.90
12481;DHT22;6305;48.398;11.762;2022-09-12T03:37:44;8.60;99.90
12481;DHT22;6305;48.398;11.762;2022-09-12T03:40:11;8.60;99.90
12481;DHT22;6305;48.398;11.762;2022-09-12T03:42:40;8.50;99.90
12481;DHT22;6305;48.398;11.762;2022-09-12T03:45:08;8.50;99.90
12481;DHT22;6305;48.398;11.762;2022-09-12T03:47:35;8.50;99.90
12481;DHT22;6305;48.398;11.762;2022-09-12T03:50:03;8.50;99.90
12481;DHT22;6305;48.398;11.762;2022-09-12T03:52:30;8.40;99.90
12481;DHT22;6305;48.398;11.762;2022-09-12T03:54:57;8.50;99.90
12481;DHT22;6305;48.398;11.762;2022-09-12T03:57:24;8.40;99.90
12481;DHT22;6305;48.398;11.762;2022-09-12T03:59:52;8.40;99.90
12481;DHT22;6305;48.398;11.762;2022-09-12T04:02:18;8.40;99.90
12481;DHT22;6305;48.398;11.762;2022-09-12T04:04:45;8.40;99.90
12481;DHT22;6305;48.398;11.762;2022-09-12T04:07:13;8.40;99.90
12481;DHT22;6305;48.398;11.762;2022-09-12T04:09:40;8.30;99.90
12481;DHT22;6305;48.398;11.762;2022-09-12T04:12:06;8.30;99.90
12481;DHT22;6305;48.398;11.762;2022-09-12T04:14:33;8.20;99.90
12481;DHT22;6305;48.398;11.762;2022-09-12T04:17:01;8.20;99.90
12481;DHT22;6305;48.398;11.762;2022-09-12T04:19:28;8.10;99.90
12481;DHT22;6305;48.398;11.762;2022-09-12T04:21:55;8.20;99.90
12481;DHT22;6305;48.398;11.762;2022-09-12T04:24:21;8.10;99.90
12481;DHT22;6305;48.398;11.762;2022-09-12T04:26:48;8.00;99.90
12481;DHT22;6305;48.398;11.762;2022-09-12T04:29:15;8.00;99.90
12481;DHT22;6305;48.398;11.762;2022-09-12T04:31:42;7.90;99.90
12481;DHT22;6305;48.398;11.762;2022-09-12T04:34:10;7.90;99.90
12481;DHT22;6305;48.398;11.762;2022-09-12T04:36:37;7.80;99.90
12481;DHT22;6305;48.398;11.762;2022-09-12T04:39:04;7.80;99.90
12481;DHT22;6305;48.398;11.762;2022-09-12T04:41:34;7.70;99.90
12481;DHT22;6305;48.398;11.762;2022-09-12T04:44:03;7.70;99.90
12481;DHT22;6305;48.398;11.762;2022-09-12T04:46:33;7.70;99.90
12481;DHT22;6305;48.398;11.762;2022-09-12T04:49:00;7.70;99.90
12481;DHT22;6305;48.398;11.762;2022-09-12T04:51:30;7.70;99.90
12481;DHT22;6305;48.398;11.762;2022-09-12T04:54:02;7.80;99.90
12481;DHT22;6305;48.398;11.762;2022-09-12T04:56:29;7.80;99.90
12481;DHT22;6305;48.398;11.762;2022-09-12T04:58:57;7.90;99.90
12481;DHT22;6305;48.398;11.762;2022-09-12T05:01:24;8.00;99.90
12481;DHT22;6305;48.398;11.762;2022-09-12T05:03:51;8.00;99.90
12481;DHT22;6305;48.398;11.762;2022-09-12T05:06:19;8.00;99.90
12481;DHT22;6305;48.398;11.762;2022-09-12T05:08:48;8.10;99.90
12481;DHT22;6305;48.398;11.762;2022-09-12T05:11:16;8.10;99.90
12481;DHT22;6305;48.398;11.762;2022-09-12T05:13:43;8.10;99.90
12481;DHT22;6305;48.398;11.762;2022-09-12T05:16:12;8.10;99.90
12481;DHT22;6305;48.398;11.762;2022-09-12T05:18:39;8.10;99.90
12481;DHT22;6305;48.398;11.762;2022-09-12T05:21:09;8.20;99.90
12481;DHT22;6305;48.398;11.762;2022-09-12T05:23:36;8.20;99.90
12481;DHT22;6305;48.398;11.762;2022-09-12T05:26:05;8.30;99.90
12481;DHT22;6305;48.398;11.762;2022-09-12T05:28:34;8.30;99.90
12481;DHT22;6305;48.398;11.762;2022-09-12T05:31:02;8.40;99.90
12481;DHT22;6305;48.398;11.762;2022-09-12T05:33:31;8.40;99.90
12481;DHT22;6305;48.398;11.762;2022-09-12T05:35:58;8.60;99.90
12481;DHT22;6305;48.398;11.762;2022-09-12T05:38:24;8.70;99.90
12481;DHT22;6305;48.398;11.762;2022-09-12T05:40:53;8.80;99.90
12481;DHT22;6305;48.398;11.762;2022-09-12T05:43:21;9.00;99.90
12481;DHT22;6305;48.398;11.762;2022-09-12T05:45:48;9.20;99.90
12481;DHT22;6305;48.398;11.762;2022-09-12T05:48:15;9.40;99.90
12481;DHT22;6305;48.398;11.762;2022-09-12T05:50:41;9.60;99.90
12481;DHT22;6305;48.398;11.762;2022-09-12T05:53:08;9.90;99.90
12481;DHT22;6305;48.398;11.762;2022-09-12T05:55:35;10.20;99.90
12481;DHT22;6305;48.398;11.762;2022-09-12T05:58:02;10.40;99.90
12481;DHT22;6305;48.398;11.762;2022-09-12T06:00:30;10.70;99.90
12481;DHT22;6305;48.398;11.762;2022-09-12T06:02:56;10.80;99.90
12481;DHT22;6305;48.398;11.762;2022-09-12T06:05:23;10.90;99.90
12481;DHT22;6305;48.398;11.762;2022-09-12T06:07:50;11.10;99.90
12481;DHT22;6305;48.398;11.762;2022-09-12T06:10:17;11.40;99.90
12481;DHT22;6305;48.398;11.762;2022-09-12T06:12:43;11.60;99.90
12481;DHT22;6305;48.398;11.762;2022-09-12T06:15:10;11.80;99.90
12481;DHT22;6305;48.398;11.762;2022-09-12T06:17:40;12.00;99.90
12481;DHT22;6305;48.398;11.762;2022-09-12T06:20:07;12.20;99.90
12481;DHT22;6305;48.398;11.762;2022-09-12T06:22:34;12.30;99.90
12481;DHT22;6305;48.398;11.762;2022-09-12T06:25:00;12.30;99.90
12481;DHT22;6305;48.398;11.762;2022-09-12T06:27:27;12.50;99.90
12481;DHT22;6305;48.398;11.762;2022-09-12T06:29:54;12.80;99.90
12481;DHT22;6305;48.398;11.762;2022-09-12T06:32:21;13.30;99.90
12481;DHT22;6305;48.398;11.762;2022-09-12T06:34:49;13.90;99.90
12481;DHT22;6305;48.398;11.762;2022-09-12T06:37:16;14.50;99.90
12481;DHT22;6305;48.398;11.762;2022-09-12T06:39:43;15.10;99.90
12481;DHT22;6305;48.398;11.762;2022-09-12T06:42:09;16.00;99.90
12481;DHT22;6305;48.398;11.762;2022-09-12T06:44:37;17.10;99.90
12481;DHT22;6305;48.398;11.762;2022-09-12T06:47:03;18.20;99.90
12481;DHT22;6305;48.398;11.762;2022-09-12T06:49:30;19.20;99.90
12481;DHT22;6305;48.398;11.762;2022-09-12T06:51:59;20.30;99.90
12481;DHT22;6305;48.398;11.762;2022-09-12T06:54:26;21.50;99.90
12481;DHT22;6305;48.398;11.762;2022-09-12T06:56:53;22.80;99.90
12481;DHT22;6305;48.398;11.762;2022-09-12T06:59:19;23.90;99.90
12481;DHT22;6305;48.398;11.762;2022-09-12T07:01:46;25.30;99.90
12481;DHT22;6305;48.398;11.762;2022-09-12T07:04:12;26.10;99.90
12481;DHT22;6305;48.398;11.762;2022-09-12T07:06:40;27.00;99.90
12481;DHT22;6305;48.398;11.762;2022-09-12T07:09:12;27.10;99.90
12481;DHT22;6305;48.398;11.762;2022-09-12T07:11:42;27.60;99.90
12481;DHT22;6305;48.398;11.762;2022-09-12T07:14:11;28.60;99.90
12481;DHT22;6305;48.398;11.762;2022-09-12T07:16:38;29.30;97.30
12481;DHT22;6305;48.398;11.762;2022-09-12T07:19:06;30.00;93.00
12481;DHT22;6305;48.398;11.762;2022-09-12T07:21:33;30.30;85.90
12481;DHT22;6305;48.398;11.762;2022-09-12T07:24:04;30.40;78.00
12481;DHT22;6305;48.398;11.762;2022-09-12T07:26:32;30.90;69.70
12481;DHT22;6305;48.398;11.762;2022-09-12T07:28:59;31.50;62.30
12481;DHT22;6305;48.398;11.762;2022-09-12T07:31:27;32.50;56.00
12481;DHT22;6305;48.398;11.762;2022-09-12T07:33:54;33.20;52.00
12481;DHT22;6305;48.398;11.762;2022-09-12T07:36:22;33.90;49.70
12481;DHT22;6305;48.398;11.762;2022-09-12T07:38:53;34.70;46.90
12481;DHT22;6305;48.398;11.762;2022-09-12T07:41:21;34.90;45.50
12481;DHT22;6305;48.398;11.762;2022-09-12T07:43:50;35.30;43.80
12481;DHT22;6305;48.398;11.762;2022-09-12T07:46:17;35.40;42.70
12481;DHT22;6305;48.398;11.762;2022-09-12T07:48:44;35.40;42.40
12481;DHT22;6305;48.398;11.762;2022-09-12T07:51:14;35.50;42.00
12481;DHT22;6305;48.398;11.762;2022-09-12T07:53:41;35.90;41.70
12481;DHT22;6305;48.398;11.762;2022-09-12T07:56:09;36.40;40.90
12481;DHT22;6305;48.398;11.762;2022-09-12T07:58:38;36.60;40.00
12481;DHT22;6305;48.398;11.762;2022-09-12T08:01:08;36.80;39.90
12481;DHT22;6305;48.398;11.762;2022-09-12T08:03:36;36.90;39.50
12481;DHT22;6305;48.398;11.762;2022-09-12T08:06:04;37.00;39.30
12481;DHT22;6305;48.398;11.762;2022-09-12T08:08:31;37.10;38.90
12481;DHT22;6305;48.398;11.762;2022-09-12T08:10:58;36.80;39.40
12481;DHT22;6305;48.398;11.762;2022-09-12T08:13:25;37.10;39.60
12481;DHT22;6305;48.398;11.762;2022-09-12T08:15:56;37.30;38.50
12481;DHT22;6305;48.398;11.762;2022-09-12T08:18:25;37.10;38.00
12481;DHT22;6305;48.398;11.762;2022-09-12T08:20:56;37.00;37.40
12481;DHT22;6305;48.398;11.762;2022-09-12T08:23:23;36.70;38.00
12481;DHT22;6305;48.398;11.762;2022-09-12T08:25:50;36.50;37.50
12481;DHT22;6305;48.398;11.762;2022-09-12T08:28:17;35.80;37.60
12481;DHT22;6305;48.398;11.762;2022-09-12T08:30:43;36.40;38.40
12481;DHT22;6305;48.398;11.762;2022-09-12T08:33:10;36.80;37.30
12481;DHT22;6305;48.398;11.762;2022-09-12T08:35:38;36.40;37.50
12481;DHT22;6305;48.398;11.762;2022-09-12T08:38:05;36.60;37.70
12481;DHT22;6305;48.398;11.762;2022-09-12T08:40:33;36.30;37.10
12481;DHT22;6305;48.398;11.762;2022-09-12T08:43:12;36.10;37.80
12481;DHT22;6305;48.398;11.762;2022-09-12T08:45:50;35.40;38.60
12481;DHT22;6305;48.398;11.762;2022-09-12T08:48:19;36.10;39.50
12481;DHT22;6305;48.398;11.762;2022-09-12T08:50:47;37.00;38.40
12481;DHT22;6305;48.398;11.762;2022-09-12T08:53:17;36.70;37.50
12481;DHT22;6305;48.398;11.762;2022-09-12T08:55:50;36.20;37.90
12481;DHT22;6305;48.398;11.762;2022-09-12T08:58:19;35.40;38.60
12481;DHT22;6305;48.398;11.762;2022-09-12T09:00:52;35.80;39.70
12481;DHT22;6305;48.398;11.762;2022-09-12T09:03:58;36.70;39.40
12481;DHT22;6305;48.398;11.762;2022-09-12T09:06:56;37.80;37.40
12481;DHT22;6305;48.398;11.762;2022-09-12T09:09:34;38.20;36.30
12481;DHT22;6305;48.398;11.762;2022-09-12T09:12:08;37.90;36.30
12481;DHT22;6305;48.398;11.762;2022-09-12T09:14:57;37.80;36.70
12481;DHT22;6305;48.398;11.762;2022-09-12T09:17:33;37.80;37.30
12481;DHT22;6305;48.398;11.762;2022-09-12T09:20:04;38.20;36.30
12481;DHT22;6305;48.398;11.762;2022-09-12T09:22:40;37.90;35.20
12481;DHT22;6305;48.398;11.762;2022-09-12T09:25:14;36.90;36.50
12481;DHT22;6305;48.398;11.762;2022-09-12T09:27:47;36.30;37.20
12481;DHT22;6305;48.398;11.762;2022-09-12T09:30:16;36.50;37.90
12481;DHT22;6305;48.398;11.762;2022-09-12T09:32:48;36.70;37.70
12481;DHT22;6305;48.398;11.762;2022-09-12T09:35:18;35.90;38.00
12481;DHT22;6305;48.398;11.762;2022-09-12T09:38:00;36.00;38.90
12481;DHT22;6305;48.398;11.762;2022-09-12T09:40:36;35.70;38.40
12481;DHT22;6305;48.398;11.762;2022-09-12T09:43:11;35.50;38.70
12481;DHT22;6305;48.398;11.762;2022-09-12T09:45:40;35.40;39.00
12481;DHT22;6305;48.398;11.762;2022-09-12T09:48:15;35.70;39.30
12481;DHT22;6305;48.398;11.762;2022-09-12T09:50:45;35.80;38.30
12481;DHT22;6305;48.398;11.762;2022-09-12T09:53:25;35.60;38.60
12481;DHT22;6305;48.398;11.762;2022-09-12T09:55:54;35.90;38.70
12481;DHT22;6305;48.398;11.762;2022-09-12T09:58:29;35.80;38.10
12481;DHT22;6305;48.398;11.762;2022-09-12T10:00:58;36.10;38.40
12481;DHT22;6305;48.398;11.762;2022-09-12T10:03:29;36.20;38.30
12481;DHT22;6305;48.398;11.762;2022-09-12T10:05:59;36.90;36.80
12481;DHT22;6305;48.398;11.762;2022-09-12T10:08:29;36.90;35.50
12481;DHT22;6305;48.398;11.762;2022-09-12T10:11:02;36.90;35.60
12481;DHT22;6305;48.398;11.762;2022-09-12T10:13:36;37.10;36.80
12481;DHT22;6305;48.398;11.762;2022-09-12T10:16:05;37.80;35.70
12481;DHT22;6305;48.398;11.762;2022-09-12T10:18:38;38.40;35.50
12481;DHT22;6305;48.398;11.762;2022-09-12T10:21:20;39.40;34.40
12481;DHT22;6305;48.398;11.762;2022-09-12T10:23:57;40.10;32.80
12481;DHT22;6305;48.398;11.762;2022-09-12T10:26:26;39.40;32.10
12481;DHT22;6305;48.398;11.762;2022-09-12T10:29:03;38.50;33.80
12481;DHT22;6305;48.398;11.762;2022-09-12T10:31:39;38.40;34.60
12481;DHT22;6305;48.398;11.762;2022-09-12T10:34:22;38.80;34.30
12481;DHT22;6305;48.398;11.762;2022-09-12T10:36:53;38.90;33.00
12481;DHT22;6305;48.398;11.762;2022-09-12T10:39:21;38.90;33.20
12481;DHT22;6305;48.398;11.762;2022-09-12T10:41:48;39.50;33.50
12481;DHT22;6305;48.398;11.762;2022-09-12T10:44:17;39.60;33.30
12481;DHT22;6305;48.398;11.762;2022-09-12T10:46:44;38.90;32.60
12481;DHT22;6305;48.398;11.762;2022-09-12T10:49:16;38.40;33.10
12481;DHT22;6305;48.398;11.762;2022-09-12T10:51:45;38.30;33.40
12481;DHT22;6305;48.398;11.762;2022-09-12T10:54:16;38.80;33.00
12481;DHT22;6305;48.398;11.762;2022-09-12T10:57:05;39.20;32.00
12481;DHT22;6305;48.398;11.762;2022-09-12T10:59:46;39.20;31.20
12481;DHT22;6305;48.398;11.762;2022-09-12T11:02:26;38.40;31.50
12481;DHT22;6305;48.398;11.762;2022-09-12T11:04:59;37.50;32.70
12481;DHT22;6305;48.398;11.762;2022-09-12T11:07:42;38.30;32.70
12481;DHT22;6305;48.398;11.762;2022-09-12T11:10:27;38.40;31.70
12481;DHT22;6305;48.398;11.762;2022-09-12T11:13:05;38.60;30.60
12481;DHT22;6305;48.398;11.762;2022-09-12T11:15:58;38.90;30.30
12481;DHT22;6305;48.398;11.762;2022-09-12T11:18:39;38.40;29.90
12481;DHT22;6305;48.398;11.762;2022-09-12T11:21:18;38.00;30.70
12481;DHT22;6305;48.398;11.762;2022-09-12T11:24:24;37.60;30.90
12481;DHT22;6305;48.398;11.762;2022-09-12T11:27:03;38.10;31.60
12481;DHT22;6305;48.398;11.762;2022-09-12T11:29:45;38.80;30.70
12481;DHT22;6305;48.398;11.762;2022-09-12T11:32:37;38.60;31.20
12481;DHT22;6305;48.398;11.762;2022-09-12T11:35:17;39.30;31.00
12481;DHT22;6305;48.398;11.762;2022-09-12T11:38:07;39.70;29.80
12481;DHT22;6305;48.398;11.762;2022-09-12T11:40:41;40.30;30.00
12481;DHT22;6305;48.398;11.762;2022-09-12T11:43:20;41.00;28.80
12481;DHT22;6305;48.398;11.762;2022-09-12T11:45:50;41.20;28.30
12481;DHT22;6305;48.398;11.762;2022-09-12T11:48:26;40.70;28.40
12481;DHT22;6305;48.398;11.762;2022-09-12T11:50:57;40.20;28.90
12481;DHT22;6305;48.398;11.762;2022-09-12T11:53:28;39.30;29.20
12481;DHT22;6305;48.398;11.762;2022-09-12T11:56:05;38.20;29.40
12481;DHT22;6305;48.398;11.762;2022-09-12T11:58:34;37.10;30.40
12481;DHT22;6305;48.398;11.762;2022-09-12T12:01:10;35.90;31.90
12481;DHT22;6305;48.398;11.762;2022-09-12T12:03:40;35.30;32.50
12481;DHT22;6305;48.398;11.762;2022-09-12T12:06:12;35.90;33.00
12481;DHT22;6305;48.398;11.762;2022-09-12T12:08:43;36.60;33.00
12481;DHT22;6305;48.398;11.762;2022-09-12T12:11:12;37.20;32.40
12481;DHT22;6305;48.398;11.762;2022-09-12T12:13:45;37.80;30.10
12481;DHT22;6305;48.398;11.762;2022-09-12T12:16:20;37.70;30.10
12481;DHT22;6305;48.398;11.762;2022-09-12T12:18:53;37.90;30.20
12481;DHT22;6305;48.398;11.762;2022-09-12T12:21:34;38.10;30.30
12481;DHT22;6305;48.398;11.762;2022-09-12T12:24:10;38.30;30.20
12481;DHT22;6305;48.398;11.762;2022-09-12T12:26:59;38.60;30.30
12481;DHT22;6305;48.398;11.762;2022-09-12T12:29:37;39.00;30.90
12481;DHT22;6305;48.398;11.762;2022-09-12T12:32:23;39.40;29.60
12481;DHT22;6305;48.398;11.762;2022-09-12T12:35:01;39.40;29.20
12481;DHT22;6305;48.398;11.762;2022-09-12T12:37:53;38.90;29.30
12481;DHT22;6305;48.398;11.762;2022-09-12T12:40:23;38.80;29.60
12481;DHT22;6305;48.398;11.762;2022-09-12T12:43:00;38.40;29.20
12481;DHT22;6305;48.398;11.762;2022-09-12T12:45:58;37.90;30.20
12481;DHT22;6305;48.398;11.762;2022-09-12T12:51:39;37.90;29.20
12481;DHT22;6305;48.398;11.762;2022-09-12T12:54:29;37.60;30.00
12481;DHT22;6305;48.398;11.762;2022-09-12T12:57:05;37.80;31.10
12481;DHT22;6305;48.398;11.762;2022-09-12T12:59:45;37.60;31.20
12481;DHT22;6305;48.398;11.762;2022-09-12T13:02:18;37.70;31.70
12481;DHT22;6305;48.398;11.762;2022-09-12T13:04:48;36.80;30.40
12481;DHT22;6305;48.398;11.762;2022-09-12T13:07:29;36.00;32.30
12481;DHT22;6305;48.398;11.762;2022-09-12T13:09:57;35.90;32.60
12481;DHT22;6305;48.398;11.762;2022-09-12T13:12:27;35.80;32.30
12481;DHT22;6305;48.398;11.762;2022-09-12T13:14:56;35.00;32.70
12481;DHT22;6305;48.398;11.762;2022-09-12T13:17:32;34.60;33.10
12481;DHT22;6305;48.398;11.762;2022-09-12T13:20:23;34.00;33.60
12481;DHT22;6305;48.398;11.762;2022-09-12T13:22:52;33.60;35.40
12481;DHT22;6305;48.398;11.762;2022-09-12T13:25:25;33.40;35.60
12481;DHT22;6305;48.398;11.762;2022-09-12T13:28:03;33.80;36.60
12481;DHT22;6305;48.398;11.762;2022-09-12T13:30:32;34.30;36.40
12481;DHT22;6305;48.398;11.762;2022-09-12T13:33:08;34.80;36.20
12481;DHT22;6305;48.398;11.762;2022-09-12T13:35:46;35.70;34.60
12481;DHT22;6305;48.398;11.762;2022-09-12T13:38:21;36.30;32.90
12481;DHT22;6305;48.398;11.762;2022-09-12T13:41:05;36.80;32.70
12481;DHT22;6305;48.398;11.762;2022-09-12T13:43:36;36.80;31.30
12481;DHT22;6305;48.398;11.762;2022-09-12T13:46:06;36.40;32.20
12481;DHT22;6305;48.398;11.762;2022-09-12T13:48:33;36.30;32.80
12481;DHT22;6305;48.398;11.762;2022-09-12T13:51:02;36.10;33.00
12481;DHT22;6305;48.398;11.762;2022-09-12T13:53:37;35.60;33.10
12481;DHT22;6305;48.398;11.762;2022-09-12T13:56:06;35.20;33.60
12481;DHT22;6305;48.398;11.762;2022-09-12T13:58:33;35.40;34.10
12481;DHT22;6305;48.398;11.762;2022-09-12T14:01:03;35.90;34.10
12481;DHT22;6305;48.398;11.762;2022-09-12T14:03:32;36.60;33.40
12481;DHT22;6305;48.398;11.762;2022-09-12T14:06:18;36.90;31.50
12481;DHT22;6305;48.398;11.762;2022-09-12T14:08:46;35.60;32.40
12481;DHT22;6305;48.398;11.762;2022-09-12T14:11:22;34.90;34.90
12481;DHT22;6305;48.398;11.762;2022-09-12T14:13:50;35.50;34.80
12481;DHT22;6305;48.398;11.762;2022-09-12T14:16:17;36.20;33.80
12481;DHT22;6305;48.398;11.762;2022-09-12T14:18:46;36.50;33.00
12481;DHT22;6305;48.398;11.762;2022-09-12T14:21:25;36.90;32.50
12481;DHT22;6305;48.398;11.762;2022-09-12T14:23:56;37.80;31.60
12481;DHT22;6305;48.398;11.762;2022-09-12T14:26:24;38.40;30.00
12481;DHT22;6305;48.398;11.762;2022-09-12T14:28:52;38.20;30.40
12481;DHT22;6305;48.398;11.762;2022-09-12T14:31:23;37.80;30.50
12481;DHT22;6305;48.398;11.762;2022-09-12T14:33:52;37.20;31.40
12481;DHT22;6305;48.398;11.762;2022-09-12T14:36:25;36.40;31.40
12481;DHT22;6305;48.398;11.762;2022-09-12T14:38:56;35.40;32.80
12481;DHT22;6305;48.398;11.762;2022-09-12T14:41:27;35.00;33.90
12481;DHT22;6305;48.398;11.762;2022-09-12T14:43:57;34.80;33.80
12481;DHT22;6305;48.398;11.762;2022-09-12T14:46:29;34.50;34.10
12481;DHT22;6305;48.398;11.762;2022-09-12T14:48:59;33.80;35.40
12481;DHT22;6305;48.398;11.762;2022-09-12T14:51:31;33.40;37.20
12481;DHT22;6305;48.398;11.762;2022-09-12T14:53:59;33.50;37.10
12481;DHT22;6305;48.398;11.762;2022-09-12T14:56:37;33.80;36.70
12481;DHT22;6305;48.398;11.762;2022-09-12T14:59:26;34.40;35.80
12481;DHT22;6305;48.398;11.762;2022-09-12T15:02:19;34.50;35.80
12481;DHT22;6305;48.398;11.762;2022-09-12T15:04:48;34.40;35.20
12481;DHT22;6305;48.398;11.762;2022-09-12T15:07:23;34.20;35.40
12481;DHT22;6305;48.398;11.762;2022-09-12T15:09:51;34.00;35.60
12481;DHT22;6305;48.398;11.762;2022-09-12T15:12:18;33.70;35.50
12481;DHT22;6305;48.398;11.762;2022-09-12T15:14:44;33.30;36.20
12481;DHT22;6305;48.398;11.762;2022-09-12T15:17:11;32.80;37.00
12481;DHT22;6305;48.398;11.762;2022-09-12T15:19:38;32.40;37.40
12481;DHT22;6305;48.398;11.762;2022-09-12T15:22:05;31.70;38.30
12481;DHT22;6305;48.398;11.762;2022-09-12T15:24:33;30.90;39.40
12481;DHT22;6305;48.398;11.762;2022-09-12T15:26:59;30.30;40.30
12481;DHT22;6305;48.398;11.762;2022-09-12T15:29:26;29.70;42.50
12481;DHT22;6305;48.398;11.762;2022-09-12T15:31:53;29.10;43.10
12481;DHT22;6305;48.398;11.762;2022-09-12T15:34:19;28.50;44.50
12481;DHT22;6305;48.398;11.762;2022-09-12T15:36:46;27.80;46.00
12481;DHT22;6305;48.398;11.762;2022-09-12T15:39:13;27.20;47.90
12481;DHT22;6305;48.398;11.762;2022-09-12T15:41:41;26.50;48.50
12481;DHT22;6305;48.398;11.762;2022-09-12T15:44:11;26.00;49.90
12481;DHT22;6305;48.398;11.762;2022-09-12T15:46:38;25.60;50.70
12481;DHT22;6305;48.398;11.762;2022-09-12T15:49:05;25.40;52.10
12481;DHT22;6305;48.398;11.762;2022-09-12T15:51:32;25.10;52.40
12481;DHT22;6305;48.398;11.762;2022-09-12T15:53:59;25.00;53.20
12481;DHT22;6305;48.398;11.762;2022-09-12T15:56:27;24.80;54.20
12481;DHT22;6305;48.398;11.762;2022-09-12T15:58:55;24.80;55.30
12481;DHT22;6305;48.398;11.762;2022-09-12T16:01:21;24.70;55.20
12481;DHT22;6305;48.398;11.762;2022-09-12T16:03:48;24.60;55.10
12481;DHT22;6305;48.398;11.762;2022-09-12T16:06:15;24.40;56.40
12481;DHT22;6305;48.398;11.762;2022-09-12T16:08:41;24.30;56.90
12481;DHT22;6305;48.398;11.762;2022-09-12T16:11:12;24.10;58.00
12481;DHT22;6305;48.398;11.762;2022-09-12T16:13:42;23.90;58.90
12481;DHT22;6305;48.398;11.762;2022-09-12T16:16:10;23.70;58.90
12481;DHT22;6305;48.398;11.762;2022-09-12T16:18:38;23.50;60.20
12481;DHT22;6305;48.398;11.762;2022-09-12T16:21:05;23.20;61.40
12481;DHT22;6305;48.398;11.762;2022-09-12T16:23:32;23.00;62.90
12481;DHT22;6305;48.398;11.762;2022-09-12T16:26:00;22.80;64.10
12481;DHT22;6305;48.398;11.762;2022-09-12T16:28:28;22.60;65.70
12481;DHT22;6305;48.398;11.762;2022-09-12T16:30:55;22.40;66.80
12481;DHT22;6305;48.398;11.762;2022-09-12T16:33:24;22.30;68.20
12481;DHT22;6305;48.398;11.762;2022-09-12T16:35:51;22.10;69.80
12481;DHT22;6305;48.398;11.762;2022-09-12T16:38:19;21.90;71.40
12481;DHT22;6305;48.398;11.762;2022-09-12T16:40:46;21.70;72.40